Spring Brook Township, Pennsylvania
Current Conditions -  °F | °C
As of 11:54 PM on Saturday 20 Dec 2014 (Local Time) from KAVP Reporting Station
Overcast Overcast  
Wind Chill: 30°   Ceiling: 2200
Heat Index: 30°   Visibility: 10mi
Dew Point: 20°   Wind: 3mph
Humidity: 66%   Direction: 330°NNW
Pressure: 30.25"   Gusts: NA
Location:  41.3369°N, 75.5571°W
Report Text: KAVP 210454Z AUTO 33003KT 10SM OVC022 M01/M07 A3025 RMK AO2 SLP251 T10111067 410061017
Loading
Personal Weather Stations






























Interactive Weather Map New forecast layout! Learn more

10-Day Weather Forecast

Advertisements
Track Severe Weather on mobile